Time;durP1;ratioP1;P1;durP2;ratioP2;P2;SDS_P1;SDS_P2;PMS_P1;PMS_P2;Temp;Humidity;BMP_temperature;BMP_pressure;BME280_temperature;BME280_humidity;BME280_pressure;Samples;Min_cycle;Max_cycle;Signal;HPM_P1;HPM_P2
2023/10/19 00:04:18;;;;;;;25.02;21.27;;;10.50;99.90;;;11.01;100.00;96373.16;10452854;28;20236;-60
2023/10/19 00:09:22;;;;;;;22.85;20.45;;;10.50;99.90;;;11.11;100.00;96361.53;10449382;28;20687;-58
2023/10/19 00:14:27;;;;;;;22.50;20.08;;;10.60;99.90;;;11.15;100.00;96368.47;10455447;28;20229;-58
2023/10/19 00:19:31;;;;;;;21.90;19.70;;;10.60;99.90;;;11.15;100.00;96371.00;10453358;28;20298;-60
2023/10/19 00:24:34;;;;;;;22.90;20.15;;;10.60;99.90;;;11.16;100.00;96366.75;10448061;28;20282;-60
2023/10/19 00:29:41;;;;;;;22.73;20.23;;;10.50;99.90;;;11.08;100.00;96366.56;10443023;28;20225;-61
2023/10/19 00:34:51;;;;;;;25.25;21.60;;;10.50;99.90;;;11.10;100.00;96367.44;10468044;28;20232;-63
2023/10/19 00:39:56;;;;;;;21.95;19.75;;;10.50;99.90;;;11.18;100.00;96368.56;10486887;28;20310;-62
2023/10/19 00:45:05;;;;;;;24.50;21.85;;;10.60;99.90;;;11.10;100.00;96375.13;10483293;28;20239;-61
2023/10/19 00:50:15;;;;;;;24.27;21.70;;;10.50;99.90;;;11.04;100.00;96382.59;10490996;28;20330;-60
2023/10/19 00:55:21;;;;;;;26.27;23.58;;;10.50;99.90;;;11.07;100.00;96377.59;10483201;28;20216;-63
2023/10/19 01:00:31;;;;;;;25.25;22.52;;;10.50;99.90;;;11.09;100.00;96368.28;10483193;28;20274;-60
2023/10/19 01:05:36;;;;;;;23.73;21.13;;;10.50;99.90;;;11.16;100.00;96357.44;10491863;28;20619;-59
2023/10/19 01:10:40;;;;;;;21.25;18.95;;;10.60;99.90;;;11.06;100.00;96350.28;10483145;28;20282;-61
2023/10/19 01:15:49;;;;;;;25.05;21.58;;;10.50;99.90;;;11.08;100.00;96337.56;10484578;28;20229;-59
2023/10/19 01:20:55;;;;;;;26.45;23.23;;;10.50;99.90;;;10.99;100.00;96338.16;10482893;28;20227;-61
2023/10/19 01:26:02;;;;;;;27.73;23.77;;;10.40;99.90;;;10.99;100.00;96327.94;10485096;28;20400;-64
2023/10/19 01:31:08;;;;;;;25.42;22.20;;;10.40;99.90;;;11.03;100.00;96320.38;10483531;28;20236;-61
2023/10/19 01:36:11;;;;;;;23.42;20.92;;;10.50;99.90;;;11.12;100.00;96309.56;10487834;28;20220;-61
2023/10/19 01:41:18;;;;;;;28.13;23.98;;;10.50;99.90;;;11.11;100.00;96310.41;10489176;28;20263;-61
2023/10/19 01:46:24;;;;;;;20.15;18.08;;;10.50;99.90;;;11.13;100.00;96318.97;10492792;28;20677;-62
2023/10/19 01:51:30;;;;;;;25.27;22.50;;;10.60;99.90;;;11.14;100.00;96307.06;10490850;28;20719;-61
2023/10/19 01:56:35;;;;;;;27.23;22.60;;;10.60;99.90;;;11.18;100.00;96285.84;10490913;28;20742;-58
2023/10/19 02:01:41;;;;;;;26.35;22.73;;;10.60;99.90;;;11.01;100.00;96270.88;10488626;28;20228;-57
2023/10/19 02:06:48;;;;;;;24.17;21.60;;;10.50;99.90;;;11.14;100.00;96250.81;10493263;28;20303;-63
2023/10/19 02:11:55;;;;;;;27.25;23.33;;;10.60;99.90;;;11.32;100.00;96260.69;10496675;28;20228;-61
2023/10/19 02:17:03;;;;;;;26.73;22.38;;;10.70;99.90;;;11.33;100.00;96237.72;10491084;28;20358;-60
2023/10/19 02:22:08;;;;;;;26.90;23.77;;;10.70;99.90;;;11.02;100.00;96225.75;10485931;28;20700;-61
2023/10/19 02:27:13;;;;;;;29.73;24.52;;;10.50;99.90;;;10.86;100.00;96226.13;10491688;28;20703;-60
2023/10/19 02:32:33;;;;;;;28.20;23.48;;;10.40;99.90;;;10.86;100.00;96219.31;10487019;28;20231;-59
2023/10/19 02:37:38;;;;;;;30.65;24.55;;;10.50;99.90;;;10.88;100.00;96212.56;10488808;28;20228;-60
2023/10/19 02:42:46;;;;;;;31.30;24.48;;;10.50;99.90;;;10.75;100.00;96213.88;10496623;28;20300;-61
2023/10/19 02:47:50;;;;;;;31.02;25.65;;;10.50;99.90;;;10.96;100.00;96206.00;10488474;28;20224;-59
2023/10/19 02:52:54;;;;;;;32.17;26.23;;;10.50;99.90;;;11.03;100.00;96207.03;10492038;28;20320;-62
2023/10/19 02:57:59;;;;;;;30.02;25.65;;;10.60;99.90;;;11.16;100.00;96196.34;10492600;28;20277;-62
2023/10/19 03:03:05;;;;;;;28.52;25.25;;;10.70;99.90;;;11.03;100.00;96192.53;10489449;28;20703;-59
2023/10/19 03:08:09;;;;;;;29.65;24.48;;;10.60;99.90;;;11.02;100.00;96184.84;10489004;28;20236;-62
2023/10/19 03:13:15;;;;;;;29.67;24.55;;;10.60;99.90;;;11.09;100.00;96196.97;10490142;28;20233;-59
2023/10/19 03:18:18;;;;;;;26.17;22.73;;;10.60;99.90;;;11.12;100.00;96197.06;10488669;28;20224;-62
2023/10/19 03:23:22;;;;;;;29.88;24.83;;;10.70;99.90;;;11.13;100.00;96197.91;10489413;28;20229;-61
2023/10/19 03:28:26;;;;;;;25.60;22.17;;;10.60;99.90;;;11.16;100.00;96193.78;10488519;28;20243;-61
2023/10/19 03:33:30;;;;;;;29.58;24.08;;;10.60;99.90;;;11.09;100.00;96186.75;10486742;28;20339;-61
2023/10/19 03:38:36;;;;;;;28.38;23.17;;;10.50;99.90;;;11.07;100.00;96173.03;10486139;28;20249;-61
2023/10/19 03:43:41;;;;;;;23.02;20.52;;;10.50;99.90;;;11.01;100.00;96171.19;10488041;28;20230;-60
2023/10/19 03:48:46;;;;;;;21.63;19.33;;;10.40;99.90;;;10.94;100.00;96181.22;10485514;28;20220;-62
2023/10/19 03:53:54;;;;;;;27.80;23.10;;;10.40;99.90;;;10.88;100.00;96175.94;10486119;28;20725;-61
2023/10/19 03:59:00;;;;;;;25.73;22.50;;;10.30;99.90;;;10.89;100.00;96167.44;10482274;28;20228;-62
2023/10/19 04:04:05;;;;;;;22.88;19.83;;;10.30;99.90;;;10.80;100.00;96162.91;10468713;28;20229;-63
2023/10/19 04:09:09;;;;;;;25.48;22.52;;;10.20;99.90;;;10.79;100.00;96150.97;10485450;28;20243;-61
2023/10/19 04:14:15;;;;;;;24.23;19.80;;;10.20;99.90;;;10.76;100.00;96159.41;10484069;28;20227;-61
2023/10/19 04:19:18;;;;;;;26.10;21.77;;;10.20;99.90;;;10.84;100.00;96151.94;10481567;28;20248;-61
2023/10/19 04:24:21;;;;;;;22.88;19.98;;;10.20;99.90;;;10.78;100.00;96144.13;10482154;28;20220;-61
2023/10/19 04:29:28;;;;;;;25.65;21.88;;;10.10;99.90;;;10.56;100.00;96142.66;10489923;28;20251;-61
2023/10/19 04:34:31;;;;;;;25.10;20.88;;;10.00;99.90;;;10.51;100.00;96133.97;10488435;28;20232;-63
2023/10/19 04:39:36;;;;;;;24.92;21.50;;;9.90;99.90;;;10.47;100.00;96114.25;10475614;28;20761;-61
2023/10/19 04:44:40;;;;;;;20.55;18.30;;;9.90;99.90;;;10.52;100.00;96123.78;10480311;28;20601;-60
2023/10/19 04:49:43;;;;;;;27.70;24.75;;;9.90;99.90;;;10.48;100.00;96111.78;10480734;28;20738;-62
2023/10/19 04:54:46;;;;;;;25.02;22.20;;;9.90;99.90;;;10.37;100.00;96116.56;10483546;28;20741;-60
2023/10/19 04:59:51;;;;;;;19.48;17.30;;;9.80;99.90;;;10.38;100.00;96118.28;10480526;28;20231;-61
2023/10/19 05:04:54;;;;;;;18.02;16.10;;;9.80;99.90;;;10.34;100.00;96108.81;10481841;28;20225;-61
2023/10/19 05:09:59;;;;;;;19.95;17.73;;;9.70;99.90;;;10.36;100.00;96104.63;10484144;28;20311;-61
2023/10/19 05:15:06;;;;;;;18.17;16.23;;;9.70;99.90;;;10.31;100.00;96101.06;10491593;28;20320;-60
2023/10/19 05:20:10;;;;;;;15.80;14.20;;;9.70;99.90;;;10.28;100.00;96097.56;10488942;28;20232;-60
2023/10/19 05:25:14;;;;;;;15.43;13.52;;;9.60;99.90;;;10.20;100.00;96094.72;10487666;28;20236;-61
2023/10/19 05:30:19;;;;;;;12.32;11.05;;;9.60;99.90;;;10.23;100.00;96102.47;10490957;28;20228;-58
2023/10/19 05:35:26;;;;;;;17.05;15.25;;;9.60;99.90;;;10.19;100.00;96100.66;10486958;28;20224;-61
2023/10/19 05:40:30;;;;;;;17.98;16.10;;;9.50;99.90;;;10.16;100.00;96110.78;10482703;28;20699;-58
2023/10/19 05:45:36;;;;;;;19.02;17.08;;;9.50;99.90;;;10.19;100.00;96105.78;10485385;28;20236;-61
2023/10/19 05:50:43;;;;;;;16.92;15.25;;;9.50;99.90;;;10.19;100.00;96110.00;10483378;28;20718;-64
2023/10/19 05:55:46;;;;;;;20.52;16.70;;;9.50;99.90;;;10.11;100.00;96112.34;10484106;28;20228;-61
2023/10/19 06:00:51;;;;;;;16.67;14.98;;;9.50;99.90;;;10.16;100.00;96126.13;10490115;28;20592;-60
2023/10/19 06:05:56;;;;;;;17.73;15.85;;;9.60;99.90;;;10.24;100.00;96134.84;10487328;28;20232;-61
2023/10/19 06:10:59;;;;;;;17.30;15.70;;;9.60;99.90;;;10.27;100.00;96142.66;10488977;28;20328;-62
2023/10/19 06:16:04;;;;;;;16.67;15.02;;;9.70;99.90;;;10.35;100.00;96142.88;10470503;28;20235;-64
2023/10/19 06:21:08;;;;;;;17.88;16.05;;;9.70;99.90;;;10.28;100.00;96135.84;10488958;28;20228;-61
2023/10/19 06:26:12;;;;;;;17.05;15.35;;;9.70;99.90;;;10.31;100.00;96131.69;10488216;28;20240;-61
2023/10/19 06:31:17;;;;;;;18.55;16.02;;;9.70;99.90;;;10.42;100.00;96128.63;10489878;28;20228;-62
2023/10/19 06:36:20;;;;;;;17.60;15.65;;;9.80;99.90;;;10.54;100.00;96128.97;10489305;28;20224;-57
2023/10/19 06:41:23;;;;;;;15.73;14.02;;;9.90;99.90;;;10.74;100.00;96115.06;10489393;28;20711;-59
2023/10/19 06:46:28;;;;;;;16.70;15.00;;;10.00;99.90;;;10.86;100.00;96118.78;10487222;28;20657;-60
2023/10/19 06:51:33;;;;;;;14.85;13.40;;;10.10;99.90;;;10.85;100.00;96129.84;10486886;28;20784;-60
2023/10/19 06:56:37;;;;;;;20.35;18.30;;;10.10;99.90;;;10.72;100.00;96129.47;10484090;28;20231;-56
2023/10/19 07:01:41;;;;;;;28.58;25.50;;;10.10;99.90;;;10.79;100.00;96131.41;10485387;28;20225;-58
2023/10/19 07:06:47;;;;;;;26.77;24.33;;;10.10;99.90;;;10.90;100.00;96135.91;10487940;28;20228;-61
2023/10/19 07:11:53;;;;;;;27.33;24.58;;;10.20;99.90;;;10.85;100.00;96129.84;10474397;28;20606;-61
2023/10/19 07:16:57;;;;;;;22.67;20.25;;;10.20;99.90;;;10.89;100.00;96118.88;10445652;28;20279;-63
2023/10/19 07:22:04;;;;;;;24.52;21.85;;;10.40;99.90;;;11.12;100.00;96117.78;10444344;28;20647;-61
2023/10/19 07:27:07;;;;;;;21.90;19.55;;;10.60;99.90;;;11.27;100.00;96115.66;10441542;28;20724;-60
2023/10/19 07:32:19;;;;;;;23.60;20.90;;;10.80;99.90;;;11.34;100.00;96110.69;10432935;28;20237;-58
2023/10/19 07:37:22;;;;;;;21.48;19.15;;;10.80;99.90;;;11.33;100.00;96114.06;10438084;28;20233;-59
2023/10/19 07:42:26;;;;;;;18.40;16.52;;;10.80;99.90;;;11.36;100.00;96115.03;10444011;28;20226;-58
2023/10/19 07:47:32;;;;;;;19.92;17.85;;;10.80;99.90;;;11.40;100.00;96126.19;10444916;28;20850;-59
2023/10/19 07:52:35;;;;;;;19.65;17.75;;;10.90;99.90;;;11.41;100.00;96105.75;10444073;28;20244;-59
2023/10/19 07:57:40;;;;;;;23.90;19.98;;;10.90;99.90;;;11.17;100.00;96113.66;10487656;28;20232;-60
2023/10/19 08:02:45;;;;;;;21.35;19.15;;;10.80;99.90;;;11.19;100.00;96095.81;10483010;28;20311;-58
2023/10/19 08:07:49;;;;;;;21.70;19.13;;;10.70;99.90;;;11.42;100.00;96101.53;10481833;28;20247;-61
2023/10/19 08:12:52;;;;;;;22.80;19.75;;;10.90;99.90;;;11.57;100.00;96083.97;10474911;28;20606;-58
2023/10/19 08:17:57;;;;;;;21.33;19.02;;;11.10;99.90;;;11.71;100.00;96074.94;10484379;28;20228;-61
2023/10/19 08:23:02;;;;;;;22.90;20.45;;;11.20;99.90;;;11.92;100.00;96076.28;10481598;28;20358;-59
2023/10/19 08:28:06;;;;;;;26.88;22.58;;;11.40;99.90;;;12.05;100.00;96083.44;10484730;28;20240;-62
2023/10/19 08:33:13;;;;;;;21.50;19.13;;;11.50;99.90;;;12.28;100.00;96075.38;10482749;28;20232;-60
2023/10/19 08:38:17;;;;;;;24.55;22.05;;;11.70;99.90;;;12.51;100.00;96073.31;10480202;28;20250;-60
2023/10/19 08:43:21;;;;;;;21.05;18.85;;;11.90;99.90;;;12.61;100.00;96078.63;10483706;28;20233;-61
2023/10/19 08:48:26;;;;;;;20.45;18.38;;;11.90;99.90;;;12.68;100.00;96069.38;10480117;28;20231;-61
2023/10/19 08:53:30;;;;;;;19.38;17.45;;;11.90;99.90;;;12.91;100.00;96066.41;10483426;28;20224;-61
2023/10/19 08:58:33;;;;;;;20.50;18.50;;;12.20;99.90;;;12.92;100.00;96063.84;10486247;28;20226;-61
2023/10/19 09:03:38;;;;;;;21.77;19.58;;;12.30;99.90;;;13.08;100.00;96058.19;10484958;28;20246;-61
2023/10/19 09:08:42;;;;;;;23.83;21.48;;;12.50;99.90;;;13.52;100.00;96065.78;10475966;28;20235;-61
2023/10/19 09:13:47;;;;;;;24.25;21.60;;;12.90;99.90;;;13.67;100.00;96064.31;10477464;28;20226;-60
2023/10/19 09:18:52;;;;;;;24.40;21.90;;;13.10;99.90;;;13.82;100.00;96063.69;10485212;28;20224;-58
2023/10/19 09:23:57;;;;;;;23.35;20.63;;;13.10;99.90;;;13.81;100.00;96057.69;10480609;28;20228;-61
2023/10/19 09:29:00;;;;;;;23.17;21.02;;;13.20;99.90;;;14.13;100.00;96039.31;10481895;28;20224;-59
2023/10/19 09:34:10;;;;;;;21.17;18.90;;;13.50;99.90;;;13.98;100.00;96055.38;10479415;28;20789;-59
2023/10/19 09:39:16;;;;;;;20.08;18.05;;;13.40;99.90;;;14.25;100.00;96054.03;10483713;28;20232;-57
2023/10/19 09:44:25;;;;;;;19.08;17.27;;;13.60;99.90;;;14.31;100.00;96046.41;10481778;28;20228;-60
2023/10/19 09:49:30;;;;;;;21.17;19.08;;;13.80;99.90;;;14.08;100.00;96040.94;10478416;28;20243;-59
2023/10/19 09:54:48;;;;;;;22.40;20.30;;;13.70;99.90;;;14.52;100.00;96040.72;10483828;28;20232;-61
2023/10/19 09:59:59;;;;;;;19.75;18.05;;;14.00;99.90;;;14.57;100.00;96031.34;10488737;28;20228;-63
2023/10/19 10:05:04;;;;;;;18.45;16.75;;;14.00;99.90;;;14.67;100.00;96033.16;10486493;28;20228;-57
2023/10/19 10:10:09;;;;;;;18.88;17.02;;;14.10;99.90;;;14.77;100.00;96027.28;10488698;28;20235;-62
2023/10/19 10:15:13;;;;;;;19.42;17.58;;;14.20;99.90;;;14.83;100.00;96019.63;10490929;28;20232;-58
2023/10/19 10:20:35;;;;;;;17.63;16.02;;;14.20;99.90;;;14.96;100.00;96014.59;10488237;28;20777;-58
2023/10/19 10:25:40;;;;;;;18.65;17.05;;;14.30;99.90;;;15.20;100.00;96009.72;10490050;28;20228;-59
2023/10/19 10:31:15;;;;;;;18.67;16.83;;;14.50;99.90;;;15.19;100.00;95991.66;10486644;28;20216;-61
2023/10/19 10:36:21;;;;;;;19.17;17.40;;;14.60;99.90;;;15.13;100.00;95987.31;10488281;28;20220;-58
2023/10/19 10:41:27;;;;;;;18.02;16.30;;;14.50;99.90;;;15.04;100.00;95992.41;10493869;28;20223;-60
2023/10/19 10:46:31;;;;;;;21.33;19.23;;;14.40;99.90;;;15.04;100.00;95984.69;10488574;28;20659;-57
2023/10/19 10:51:36;;;;;;;19.27;17.50;;;14.40;99.90;;;15.12;100.00;95979.59;10487288;28;20602;-59
2023/10/19 10:56:42;;;;;;;20.73;18.85;;;14.50;99.90;;;15.26;100.00;95983.16;10488379;28;20221;-59
2023/10/19 11:01:45;;;;;;;20.73;18.77;;;14.60;99.90;;;15.38;100.00;95977.25;10486299;28;20240;-59
2023/10/19 11:06:55;;;;;;;20.02;18.15;;;14.70;99.90;;;15.47;100.00;95972.16;10483065;28;20220;-64
2023/10/19 11:12:00;;;;;;;20.08;18.08;;;14.80;99.90;;;15.68;100.00;95976.63;10484368;28;20252;-60
2023/10/19 11:17:15;;;;;;;19.90;18.20;;;15.00;99.90;;;15.85;100.00;95977.63;10485904;28;20339;-63
2023/10/19 11:22:20;;;;;;;18.77;17.13;;;15.20;99.90;;;15.96;100.00;95975.06;10485271;28;20231;-60
2023/10/19 11:27:27;;;;;;;18.67;17.00;;;15.20;99.90;;;16.09;100.00;95973.44;10482360;28;20338;-62
2023/10/19 11:32:38;;;;;;;14.18;13.02;;;15.30;99.90;;;16.17;100.00;95982.09;10484815;28;20320;-60
2023/10/19 11:37:49;;;;;;;17.65;16.08;;;15.40;99.90;;;16.16;100.00;95991.50;10482587;28;20220;-62
2023/10/19 11:42:52;;;;;;;16.10;14.70;;;15.30;99.90;;;16.11;100.00;95987.19;10484467;28;20224;-61
2023/10/19 11:47:56;;;;;;;19.17;17.48;;;15.30;99.90;;;15.91;100.00;95985.38;10485409;28;20228;-61
2023/10/19 11:53:01;;;;;;;16.88;15.38;;;15.20;99.90;;;15.80;100.00;95993.91;10476252;28;20453;-59
2023/10/19 11:58:05;;;;;;;19.10;17.40;;;15.20;99.90;;;15.76;100.00;95993.84;10487910;28;20228;-59
2023/10/19 12:03:08;;;;;;;25.67;23.27;;;15.20;99.90;;;15.68;100.00;95982.66;10483441;28;20241;-60
2023/10/19 12:08:13;;;;;;;20.00;18.20;;;15.10;99.90;;;15.63;100.00;95979.16;10479114;28;20232;-63
2023/10/19 12:19:58;;;;;;;24.45;22.17;;;15.10;99.90;;;15.59;100.00;95987.69;10476807;28;20216;-61
2023/10/19 12:25:05;;;;;;;25.42;22.70;;;15.10;99.90;;;15.61;100.00;95980.84;10480927;28;20708;-58
2023/10/19 12:30:19;;;;;;;24.92;22.33;;;15.10;99.90;;;15.63;100.00;95968.00;10483727;28;20232;-62
2023/10/19 12:35:30;;;;;;;31.05;26.70;;;15.10;99.90;;;15.67;100.00;95962.00;10481355;28;20318;-64
2023/10/19 12:40:35;;;;;;;29.67;24.30;;;15.10;99.90;;;15.69;100.00;95963.78;10484759;28;20303;-61
2023/10/19 12:45:38;;;;;;;21.92;19.92;;;15.10;99.90;;;15.68;100.00;95959.47;10482150;28;20347;-58
2023/10/19 12:50:42;;;;;;;28.50;25.58;;;15.10;99.90;;;15.65;100.00;95949.13;10475859;28;20719;-65
2023/10/19 12:55:46;;;;;;;27.65;24.83;;;15.10;99.90;;;15.72;100.00;95943.19;10474466;28;20439;-61
2023/10/19 13:00:49;;;;;;;25.92;23.45;;;15.20;99.90;;;15.72;100.00;95948.34;10474798;28;20769;-65
2023/10/19 13:05:53;;;;;;;31.15;27.85;;;15.10;99.90;;;15.59;100.00;95951.63;10475950;28;20224;-60
2023/10/19 13:10:57;;;;;;;24.92;22.52;;;15.10;99.90;;;15.68;100.00;95946.59;10475866;28;20216;-60
2023/10/19 13:16:15;;;;;;;28.00;25.02;;;15.20;99.90;;;15.64;100.00;95929.34;10474242;28;20259;-61
2023/10/19 13:21:22;;;;;;;22.60;20.40;;;15.20;99.90;;;15.62;100.00;95913.03;10478244;28;20224;-60
2023/10/19 13:26:27;;;;;;;21.95;19.85;;;15.10;99.90;;;15.47;100.00;95892.34;10476773;28;20264;-61
2023/10/19 13:31:32;;;;;;;22.50;20.33;;;15.10;99.90;;;15.45;100.00;95886.31;10481871;28;20896;-62
2023/10/19 13:36:36;;;;;;;20.80;18.80;;;15.00;99.90;;;15.47;100.00;95892.34;10487443;28;20224;-62
2023/10/19 13:41:40;;;;;;;26.75;23.27;;;14.90;99.90;;;15.51;100.00;95883.81;10486615;28;20255;-60
2023/10/19 13:46:44;;;;;;;24.48;21.88;;;15.00;99.90;;;15.66;100.00;95881.31;10489364;28;20281;-65
2023/10/19 13:51:47;;;;;;;22.05;19.92;;;15.10;99.90;;;15.64;100.00;95869.25;10484589;28;20224;-60
2023/10/19 13:56:51;;;;;;;23.30;20.63;;;15.20;99.90;;;15.67;100.00;95864.97;10490759;28;20228;-60
2023/10/19 14:01:55;;;;;;;20.73;18.70;;;15.20;99.90;;;15.82;100.00;95845.31;10478555;28;20323;-63
2023/10/19 14:06:58;;;;;;;18.95;17.13;;;15.20;99.90;;;15.67;100.00;95846.09;10468780;28;20298;-60
2023/10/19 14:12:05;;;;;;;23.60;21.13;;;15.20;99.90;;;15.64;100.00;95835.78;10482765;28;20243;-63
2023/10/19 14:17:11;;;;;;;26.08;23.58;;;15.10;99.90;;;15.58;100.00;95834.03;10481163;28;20228;-62
2023/10/19 14:22:15;;;;;;;24.23;21.80;;;15.10;99.90;;;15.65;100.00;95833.22;10481680;28;20232;-61
2023/10/19 14:27:20;;;;;;;30.70;27.50;;;15.10;99.90;;;15.63;100.00;95837.50;10479560;28;20678;-59
2023/10/19 14:32:23;;;;;;;28.42;25.55;;;15.10;99.90;;;15.63;100.00;95824.63;10481750;28;20228;-61
2023/10/19 14:37:27;;;;;;;27.02;24.13;;;15.20;99.90;;;15.67;100.00;95816.03;10482178;28;20703;-59
2023/10/19 14:42:33;;;;;;;24.63;21.95;;;15.20;99.90;;;15.77;100.00;95806.69;10479066;28;20247;-63
2023/10/19 14:47:40;;;;;;;24.00;21.58;;;15.30;99.90;;;15.69;100.00;95804.06;10477864;28;20232;-62
2023/10/19 14:52:43;;;;;;;21.85;19.83;;;15.20;99.90;;;15.71;100.00;95802.38;10479530;28;20239;-61
2023/10/19 14:57:52;;;;;;;21.92;19.70;;;15.20;99.90;;;15.71;100.00;95799.81;10476686;28;20232;-60
2023/10/19 15:03:00;;;;;;;23.52;21.08;;;15.20;99.90;;;15.65;100.00;95797.19;10473557;28;20315;-61
2023/10/19 15:08:06;;;;;;;23.60;21.27;;;15.20;99.90;;;15.64;100.00;95794.56;10475829;28;20362;-63
2023/10/19 15:13:11;;;;;;;21.08;18.90;;;15.20;99.90;;;15.64;100.00;95794.56;10472699;28;20228;-61
2023/10/19 15:18:14;;;;;;;23.92;21.38;;;15.10;99.90;;;15.61;100.00;95782.53;10475094;28;20361;-63
2023/10/19 15:23:18;;;;;;;19.80;17.90;;;15.10;99.90;;;15.63;100.00;95783.41;10474657;28;20232;-61
2023/10/19 15:28:22;;;;;;;21.58;19.45;;;15.10;99.90;;;15.62;100.00;95761.06;10474883;28;20659;-63
2023/10/19 15:33:26;;;;;;;18.48;16.63;;;15.10;99.90;;;15.64;100.00;95754.22;10473651;28;20235;-60
2023/10/19 15:38:29;;;;;;;22.15;20.08;;;15.10;99.90;;;15.68;100.00;95752.53;10473861;28;20307;-63
2023/10/19 15:43:34;;;;;;;17.52;15.82;;;15.10;99.90;;;15.68;100.00;95725.09;10475014;28;20732;-63
2023/10/19 15:48:37;;;;;;;17.58;15.77;;;15.20;99.90;;;15.68;100.00;95709.66;10474033;28;20231;-62
2023/10/19 15:53:40;;;;;;;17.35;15.65;;;15.20;99.90;;;15.71;100.00;95709.66;10473696;28;20626;-62
2023/10/19 15:58:45;;;;;;;17.80;16.10;;;15.20;99.90;;;15.66;100.00;95711.31;10475614;28;20688;-61
2023/10/19 16:03:49;;;;;;;18.75;16.98;;;15.10;99.90;;;15.69;100.00;95698.47;10471219;28;20674;-62
2023/10/19 16:08:52;;;;;;;17.15;15.43;;;15.20;99.90;;;15.58;100.00;95692.41;10470435;28;20723;-63
2023/10/19 16:13:56;;;;;;;16.60;15.00;;;15.10;99.90;;;15.49;100.00;95689.81;10474039;28;20238;-62
2023/10/19 16:19:00;;;;;;;17.23;15.52;;;15.00;99.90;;;15.40;100.00;95687.22;10473174;28;20266;-62
2023/10/19 16:24:04;;;;;;;14.02;12.75;;;14.90;99.90;;;15.35;100.00;95691.50;10477539;28;20228;-62
2023/10/19 16:29:14;;;;;;;15.55;13.95;;;14.80;99.90;;;15.29;100.00;95711.19;10478154;28;20234;-65
2023/10/19 16:34:18;;;;;;;18.02;16.25;;;14.80;99.90;;;15.24;100.00;95715.47;10471634;28;20239;-64
2023/10/19 16:39:21;;;;;;;23.10;20.55;;;14.70;99.90;;;15.27;100.00;95701.75;10479533;28;20665;-63
2023/10/19 16:44:26;;;;;;;14.35;13.02;;;14.80;99.90;;;15.25;100.00;95709.47;10475244;28;20680;-62
2023/10/19 16:49:31;;;;;;;15.82;14.43;;;14.70;99.90;;;15.18;100.00;95701.72;10476222;28;20251;-62
2023/10/19 16:54:34;;;;;;;14.57;13.18;;;14.60;99.90;;;15.14;100.00;95706.00;10471691;28;20230;-63
2023/10/19 16:59:39;;;;;;;11.95;10.85;;;14.60;99.90;;;15.07;100.00;95704.25;10475928;28;20246;-62
2023/10/19 17:04:42;;;;;;;11.80;10.90;;;14.50;99.90;;;15.02;100.00;95723.94;10478421;28;20725;-64
2023/10/19 17:09:46;;;;;;;13.27;12.07;;;14.40;99.90;;;14.95;100.00;95735.06;10484926;28;20721;-61
2023/10/19 17:14:51;;;;;;;11.55;10.57;;;14.30;99.90;;;14.91;100.00;95746.16;10483811;28;20232;-65
2023/10/19 17:19:54;;;;;;;10.70;9.65;;;14.30;99.90;;;14.87;100.00;95733.28;10480871;28;20228;-63
2023/10/19 17:24:57;;;;;;;10.93;10.02;;;14.30;99.90;;;14.86;100.00;95729.00;10482716;28;20647;-64
2023/10/19 17:30:01;;;;;;;13.05;11.95;;;14.30;99.90;;;14.81;100.00;95725.53;10479510;28;21254;-64
2023/10/19 17:35:06;;;;;;;9.40;8.70;;;14.20;99.90;;;14.76;100.00;95711.78;10481084;28;20700;-62
2023/10/19 17:40:10;;;;;;;10.25;8.98;;;14.20;99.90;;;14.69;100.00;95728.03;10480503;28;20226;-63
2023/10/19 17:45:15;;;;;;;12.90;11.70;;;14.10;99.90;;;14.79;100.00;95698.97;10480259;28;20297;-62
2023/10/19 17:50:19;;;;;;;14.55;13.35;;;14.20;99.90;;;14.69;100.00;95681.75;10475987;28;20228;-63
2023/10/19 17:55:22;;;;;;;18.20;16.50;;;14.10;99.90;;;14.62;100.00;95662.88;10481959;28;20239;-63
2023/10/19 18:00:27;;;;;;;21.50;19.30;;;14.10;99.90;;;14.58;100.00;95675.69;10481591;28;20224;-62
2023/10/19 18:05:30;;;;;;;20.88;18.77;;;14.10;99.90;;;14.52;100.00;95655.09;10481996;28;20235;-63
2023/10/19 18:10:36;;;;;;;22.60;20.27;;;14.00;99.90;;;14.53;100.00;95659.38;10481058;28;20330;-62
2023/10/19 18:15:40;;;;;;;21.02;18.92;;;14.00;99.90;;;14.47;100.00;95660.16;10481668;28;20704;-62
2023/10/19 18:20:44;;;;;;;20.75;18.55;;;14.00;99.90;;;14.46;100.00;95675.59;10474193;28;20829;-62
2023/10/19 18:25:49;;;;;;;19.15;17.20;;;13.90;99.90;;;14.44;100.00;95675.56;10477801;28;20335;-62
2023/10/19 18:31:00;;;;;;;22.77;20.48;;;13.90;99.90;;;14.37;100.00;95674.69;10478086;28;20228;-63
2023/10/19 18:36:05;;;;;;;24.58;21.98;;;13.80;99.90;;;14.35;100.00;95681.50;10475984;28;20701;-63
2023/10/19 18:41:08;;;;;;;21.73;19.50;;;13.70;99.90;;;14.33;100.00;95659.22;10475157;28;20436;-62
2023/10/19 18:46:13;;;;;;;21.70;19.48;;;13.70;99.90;;;14.20;100.00;95653.13;10474983;28;20311;-62
2023/10/19 18:51:16;;;;;;;22.90;20.50;;;13.60;99.90;;;14.13;100.00;95644.50;10476657;28;20232;-61
2023/10/19 18:56:19;;;;;;;23.30;20.13;;;13.60;99.90;;;14.13;100.00;95653.94;10476013;28;20228;-64
2023/10/19 19:01:23;;;;;;;21.80;18.83;;;13.50;99.90;;;14.09;100.00;95668.47;10475354;28;20232;-62
2023/10/19 19:06:27;;;;;;;20.08;18.08;;;13.50;99.90;;;14.09;100.00;95681.31;10475444;28;20636;-63
2023/10/19 19:11:30;;;;;;;23.15;20.70;;;13.50;99.90;;;14.04;100.00;95672.69;10476348;28;20231;-63
2023/10/19 19:16:34;;;;;;;25.40;22.80;;;13.40;99.90;;;13.98;100.00;95670.94;10473905;28;20606;-63
2023/10/19 19:21:40;;;;;;;22.98;20.58;;;13.40;99.90;;;13.99;100.00;95640.97;10472809;28;20285;-63
2023/10/19 19:26:44;;;;;;;19.88;17.88;;;13.40;99.90;;;14.08;100.00;95647.88;10473030;28;20742;-61
2023/10/19 19:31:50;;;;;;;20.58;18.38;;;13.50;99.90;;;14.17;100.00;95650.56;10472727;28;20232;-61
2023/10/19 19:36:54;;;;;;;19.73;17.65;;;13.50;99.90;;;14.17;100.00;95651.41;10473870;28;20225;-64
2023/10/19 19:41:57;;;;;;;27.85;21.48;;;13.50;99.90;;;14.03;100.00;95665.84;10474888;28;20229;-63
2023/10/19 19:47:01;;;;;;;19.25;17.42;;;13.40;99.90;;;14.04;100.00;95666.72;10473341;28;20228;-63
2023/10/19 19:52:05;;;;;;;20.20;18.08;;;13.50;99.90;;;13.90;100.00;95651.19;10473165;28;20374;-63
2023/10/19 19:57:08;;;;;;;21.35;18.10;;;13.40;99.90;;;13.81;100.00;95636.56;10473398;28;20231;-62
2023/10/19 20:02:12;;;;;;;15.80;14.27;;;13.30;99.90;;;13.84;100.00;95628.88;10471242;28;20220;-63
2023/10/19 20:07:15;;;;;;;15.65;14.15;;;13.30;99.90;;;13.88;100.00;95628.06;10472079;28;20642;-63
2023/10/19 20:12:19;;;;;;;15.13;13.32;;;13.30;99.90;;;13.65;100.00;95615.06;10473816;28;20246;-64
2023/10/19 20:17:23;;;;;;;12.75;11.50;;;13.20;99.90;;;13.65;100.00;95602.22;10472339;28;20232;-62
2023/10/19 20:22:26;;;;;;;15.38;13.77;;;13.10;99.90;;;13.62;100.00;95573.06;10470744;28;20228;-63
2023/10/19 20:27:30;;;;;;;16.63;14.93;;;13.10;99.90;;;13.60;100.00;95575.63;10473917;28;20305;-63
2023/10/19 20:32:35;;;;;;;17.48;15.68;;;13.10;99.90;;;13.60;100.00;95595.31;10471566;28;20229;-62
2023/10/19 20:37:38;;;;;;;17.35;15.55;;;13.10;99.90;;;13.65;100.00;95589.38;10471915;28;20220;-62
2023/10/19 20:42:43;;;;;;;18.38;16.58;;;13.10;99.90;;;13.59;100.00;95583.31;10471777;28;20429;-63